createdAt,value
2022-08-17T00:00:51.791Z,31.07
2022-08-17T00:03:23.911Z,33.03
2022-08-17T00:05:55.633Z,36.03
2022-08-17T00:08:27.344Z,28.67
2022-08-17T00:10:59.665Z,37.43
2022-08-17T00:13:32.604Z,32.40
2022-08-17T00:16:05.360Z,29.53
2022-08-17T00:19:01.221Z,31.20
2022-08-17T00:21:26.006Z,29.33
2022-08-17T00:24:15.829Z,36.40
2022-08-17T00:26:47.986Z,29.37
2022-08-17T00:29:20.053Z,29.03
2022-08-17T00:31:50.023Z,34.00
2022-08-17T00:34:19.931Z,26.17
2022-08-17T00:36:49.417Z,28.37
2022-08-17T00:39:18.937Z,23.20
2022-08-17T00:41:51.061Z,31.77
2022-08-17T00:44:20.575Z,34.20
2022-08-17T00:46:51.302Z,31.53
2022-08-17T00:49:23.703Z,32.40
2022-08-17T00:51:56.301Z,39.07
2022-08-17T00:54:28.646Z,31.50
2022-08-17T00:57:05.941Z,32.87
2022-08-17T00:59:41.109Z,38.47
2022-08-17T01:02:12.774Z,35.10
2022-08-17T01:04:42.280Z,31.30
2022-08-17T01:07:12.211Z,32.93
2022-08-17T01:09:43.037Z,35.67
2022-08-17T01:12:15.186Z,29.97
2022-08-17T01:14:44.704Z,33.70
2022-08-17T01:17:14.435Z,40.13
2022-08-17T01:19:45.492Z,37.33
2022-08-17T01:22:23.113Z,34.50
2022-08-17T01:24:54.850Z,40.60
2022-08-17T01:27:24.634Z,39.53
2022-08-17T01:29:58.603Z,43.73
2022-08-17T01:32:28.706Z,35.43
2022-08-17T01:34:58.186Z,30.30
2022-08-17T01:37:34.592Z,34.90
2022-08-17T01:40:08.797Z,27.87
2022-08-17T01:42:41.469Z,29.70
2022-08-17T01:45:13.685Z,31.70
2022-08-17T01:47:43.432Z,27.37
2022-08-17T01:50:15.903Z,28.93
2022-08-17T01:52:49.359Z,33.87
2022-08-17T01:55:24.613Z,28.90
2022-08-17T01:57:56.699Z,34.13
2022-08-17T02:00:26.370Z,30.60
2022-08-17T02:03:15.855Z,37.80
2022-08-17T02:05:45.363Z,40.53
2022-08-17T02:08:20.132Z,31.37
2022-08-17T02:10:50.608Z,31.83
2022-08-17T02:13:22.102Z,30.47
2022-08-17T02:15:51.632Z,30.60
2022-08-17T02:18:21.153Z,33.60
2022-08-17T02:20:50.619Z,30.70
2022-08-17T02:23:23.382Z,36.03
2022-08-17T02:25:53.024Z,37.63
2022-08-17T02:28:22.497Z,32.27
2022-08-17T02:31:01.794Z,41.03
2022-08-17T02:33:41.965Z,38.93
2022-08-17T02:36:13.924Z,38.70
2022-08-17T02:38:46.362Z,41.90
2022-08-17T02:41:15.822Z,42.30
2022-08-17T02:43:45.363Z,37.13
2022-08-17T02:46:15.395Z,37.97
2022-08-17T02:48:44.870Z,43.63
2022-08-17T02:51:14.311Z,45.50
2022-08-17T02:53:49.475Z,44.20
2022-08-17T02:56:18.941Z,40.40
2022-08-17T02:58:48.441Z,39.70
2022-08-17T03:01:18.503Z,35.93
2022-08-17T03:03:48.043Z,42.10
2022-08-17T03:06:17.555Z,44.43
2022-08-17T03:08:49.651Z,36.70
2022-08-17T03:11:19.190Z,38.50
2022-08-17T03:13:48.704Z,38.57
2022-08-17T03:16:18.205Z,181.13
2022-08-17T03:18:49.099Z,87.40
2022-08-17T03:21:18.583Z,42.67
2022-08-17T03:23:54.746Z,48.73
2022-08-17T03:26:24.331Z,42.47
2022-08-17T03:28:59.152Z,39.87
2022-08-17T03:31:28.655Z,49.73
2022-08-17T03:33:58.157Z,51.53
2022-08-17T03:36:28.370Z,40.53
2022-08-17T03:39:00.399Z,43.13
2022-08-17T03:41:29.897Z,45.33
2022-08-17T03:43:59.414Z,66.93
2022-08-17T03:46:41.702Z,54.63
2022-08-17T03:49:24.033Z,50.13
2022-08-17T03:52:06.156Z,47.60
2022-08-17T03:54:50.719Z,49.27
2022-08-17T03:57:20.396Z,54.53
2022-08-17T03:59:50.052Z,47.00
2022-08-17T04:02:22.357Z,45.20
2022-08-17T04:04:52.842Z,46.30
2022-08-17T04:07:23.134Z,44.87
2022-08-17T04:09:55.231Z,46.03
2022-08-17T04:12:25.868Z,44.37
2022-08-17T04:14:55.462Z,50.23
2022-08-17T04:17:26.383Z,45.70
2022-08-17T04:19:56.821Z,49.30
2022-08-17T04:22:30.189Z,55.00
2022-08-17T04:25:09.143Z,47.80
2022-08-17T04:27:38.741Z,49.43
2022-08-17T04:30:09.986Z,44.93
2022-08-17T04:33:05.146Z,49.67
2022-08-17T04:35:38.395Z,54.13
2022-08-17T04:38:08.453Z,53.90
2022-08-17T04:40:53.187Z,51.83
2022-08-17T04:43:24.463Z,47.70
2022-08-17T04:45:57.013Z,47.87
2022-08-17T04:48:35.410Z,49.43
2022-08-17T04:51:10.680Z,48.60
2022-08-17T04:53:41.343Z,43.57
2022-08-17T04:56:16.784Z,48.00
2022-08-17T04:58:47.941Z,58.97
2022-08-17T05:01:23.419Z,61.20
2022-08-17T05:03:54.418Z,59.80
2022-08-17T05:06:24.022Z,68.53
2022-08-17T05:08:53.612Z,63.50
2022-08-17T05:11:26.100Z,59.63
2022-08-17T05:13:56.195Z,60.07
2022-08-17T05:16:26.792Z,54.03
2022-08-17T05:18:56.702Z,53.23
2022-08-17T05:21:26.337Z,49.43
2022-08-17T05:23:58.426Z,44.10
2022-08-17T05:26:31.597Z,50.90
2022-08-17T05:29:05.982Z,53.00
2022-08-17T05:31:35.432Z,69.17
2022-08-17T05:34:04.911Z,43.10
2022-08-17T05:36:43.580Z,41.27
2022-08-17T05:39:16.816Z,46.20
2022-08-17T05:41:50.613Z,53.87
2022-08-17T05:44:20.078Z,51.87
2022-08-17T05:46:52.181Z,50.47
2022-08-17T05:49:25.430Z,47.63
2022-08-17T05:52:20.406Z,51.30
2022-08-17T05:55:02.270Z,43.33
2022-08-17T05:57:43.619Z,40.53
2022-08-17T06:00:29.987Z,46.57
2022-08-17T06:03:07.503Z,42.30
2022-08-17T06:05:46.724Z,51.27
2022-08-17T06:08:24.791Z,51.50
2022-08-17T06:11:06.223Z,52.70
2022-08-17T06:13:53.279Z,53.17
2022-08-17T06:16:34.091Z,88.27
2022-08-17T06:19:07.337Z,61.80
2022-08-17T06:21:39.362Z,66.17
2022-08-17T06:24:11.521Z,52.03
2022-08-17T06:26:44.263Z,36.10
2022-08-17T06:29:23.057Z,41.57
2022-08-17T06:31:52.553Z,42.00
2022-08-17T06:34:22.147Z,43.37
2022-08-17T06:36:56.547Z,36.03
2022-08-17T06:39:38.601Z,40.00
2022-08-17T06:43:00.850Z,37.97
2022-08-17T06:45:11.673Z,33.07
2022-08-17T06:47:47.514Z,29.17
2022-08-17T06:50:21.121Z,30.60
2022-08-17T06:52:55.315Z,31.60
2022-08-17T06:55:28.989Z,32.20
2022-08-17T06:58:15.621Z,32.90
2022-08-17T07:00:55.318Z,31.20
2022-08-17T07:03:38.442Z,29.00
2022-08-17T07:06:11.583Z,34.30
2022-08-17T07:08:54.210Z,31.73
2022-08-17T07:11:29.725Z,49.57
2022-08-17T07:14:07.468Z,38.90
2022-08-17T07:16:44.078Z,28.73
2022-08-17T07:19:15.205Z,31.50
2022-08-17T07:21:51.734Z,28.90
2022-08-17T07:24:35.517Z,26.90
2022-08-17T07:27:10.917Z,25.77
2022-08-17T07:29:44.055Z,24.30
2022-08-17T07:32:19.015Z,25.10
2022-08-17T07:35:11.213Z,24.30
2022-08-17T07:37:41.754Z,28.57
2022-08-17T07:40:29.220Z,22.20
2022-08-17T07:43:15.522Z,24.73
2022-08-17T07:46:30.754Z,14.77
2022-08-17T07:49:22.786Z,16.17
2022-08-17T07:52:47.738Z,20.33
2022-08-17T07:54:50.826Z,25.13
2022-08-17T07:57:38.171Z,21.23
2022-08-17T08:00:31.799Z,28.33
2022-08-17T08:03:16.609Z,17.27
2022-08-17T08:06:01.336Z,31.70
2022-08-17T08:08:34.193Z,60.53
2022-08-17T08:11:09.859Z,21.53
2022-08-17T08:13:43.940Z,26.27
2022-08-17T08:16:27.124Z,12.70
2022-08-17T08:18:58.712Z,13.90
2022-08-17T08:21:38.308Z,18.47
2022-08-17T08:24:30.176Z,13.47
2022-08-17T08:27:08.150Z,12.90
2022-08-17T08:29:44.998Z,15.90
2022-08-17T08:32:21.030Z,14.73
2022-08-17T08:35:01.683Z,13.87
2022-08-17T08:37:43.167Z,17.63
2022-08-17T08:40:24.819Z,19.03
2022-08-17T08:43:05.062Z,13.03
2022-08-17T08:45:40.795Z,26.67
2022-08-17T08:48:53.123Z,19.83
2022-08-17T08:51:15.447Z,28.70
2022-08-17T08:53:54.722Z,21.43
2022-08-17T08:56:30.391Z,12.27
2022-08-17T08:59:04.907Z,12.70
2022-08-17T09:01:40.507Z,48.73
2022-08-17T09:04:26.969Z,20.63
2022-08-17T09:07:03.866Z,14.50
2022-08-17T09:09:42.447Z,11.27
2022-08-17T09:12:17.092Z,13.27
2022-08-17T09:14:53.008Z,17.20
2022-08-17T09:17:25.405Z,11.07
2022-08-17T09:19:58.294Z,12.53
2022-08-17T09:22:33.273Z,13.67
2022-08-17T09:25:10.958Z,17.07
2022-08-17T09:28:00.731Z,12.40
2022-08-17T09:30:33.626Z,13.93
2022-08-17T09:33:05.349Z,16.40
2022-08-17T09:35:39.512Z,37.77
2022-08-17T09:38:20.068Z,20.00
2022-08-17T09:40:55.799Z,13.13
2022-08-17T09:43:30.720Z,11.17
2022-08-17T09:46:04.544Z,13.53
2022-08-17T09:48:39.070Z,11.30
2022-08-17T09:51:12.125Z,27.43
2022-08-17T09:53:44.552Z,13.10
2022-08-17T09:56:43.732Z,16.03
2022-08-17T09:59:27.789Z,21.13
2022-08-17T10:02:19.890Z,13.80
2022-08-17T10:04:52.698Z,107.60
2022-08-17T10:07:25.440Z,12.50
2022-08-17T10:10:00.718Z,11.07
2022-08-17T10:12:43.147Z,46.90
2022-08-17T10:15:22.707Z,52.07
2022-08-17T10:18:08.138Z,14.00
2022-08-17T10:20:44.509Z,59.33
2022-08-17T10:23:29.466Z,16.33
2022-08-17T10:26:18.403Z,21.37
2022-08-17T10:28:55.128Z,11.13
2022-08-17T10:31:36.553Z,11.53
2022-08-17T10:34:29.883Z,12.43
2022-08-17T10:37:14.999Z,10.70
2022-08-17T10:39:52.982Z,10.17
2022-08-17T10:42:30.868Z,10.00
2022-08-17T10:45:08.542Z,10.53
2022-08-17T10:48:04.694Z,13.77
2022-08-17T10:50:52.869Z,9.70
2022-08-17T10:54:07.089Z,10.77
2022-08-17T10:56:46.917Z,12.70
2022-08-17T10:59:50.417Z,10.50
2022-08-17T11:02:27.529Z,44.90
2022-08-17T11:05:08.934Z,10.20
2022-08-17T11:07:49.491Z,11.07
2022-08-17T11:10:29.087Z,15.17
2022-08-17T11:13:04.751Z,14.13
2022-08-17T11:15:47.476Z,11.60
2022-08-17T11:18:33.809Z,9.50
2022-08-17T11:21:52.713Z,10.60
2022-08-17T11:24:24.177Z,11.57
2022-08-17T11:27:07.669Z,14.43
2022-08-17T11:29:53.100Z,10.57
2022-08-17T11:32:47.486Z,13.23
2022-08-17T11:35:34.929Z,9.53
2022-08-17T11:38:19.378Z,13.43
2022-08-17T11:41:13.626Z,8.60
2022-08-17T11:44:15.670Z,9.10
2022-08-17T11:47:14.426Z,9.80
2022-08-17T11:50:12.395Z,9.73
2022-08-17T11:52:47.045Z,11.67
2022-08-17T11:55:57.984Z,14.10
2022-08-17T11:58:43.077Z,8.53
2022-08-17T12:01:16.105Z,8.03
2022-08-17T12:03:56.987Z,69.73
2022-08-17T12:06:48.364Z,10.20
2022-08-17T12:09:25.098Z,8.80
2022-08-17T12:12:12.781Z,12.53
2022-08-17T12:17:40.503Z,9.90
2022-08-17T12:20:15.598Z,11.90
2022-08-17T12:22:53.420Z,8.10
2022-08-17T12:25:31.443Z,8.50
2022-08-17T12:28:06.119Z,13.40
2022-08-17T12:30:38.643Z,9.43
2022-08-17T12:33:27.797Z,11.60
2022-08-17T12:36:00.679Z,9.07
2022-08-17T12:38:33.153Z,9.67
2022-08-17T12:41:26.889Z,11.33
2022-08-17T12:44:01.820Z,16.00
2022-08-17T12:46:33.754Z,10.97
2022-08-17T12:49:29.646Z,12.37
2022-08-17T12:52:06.180Z,9.70
2022-08-17T12:54:42.338Z,11.37
2022-08-17T12:57:19.983Z,12.27
2022-08-17T12:59:53.371Z,10.20
2022-08-17T13:02:28.546Z,9.37
2022-08-17T13:04:59.621Z,11.60
2022-08-17T13:07:31.405Z,12.23
2022-08-17T13:10:01.227Z,9.63
2022-08-17T13:12:38.471Z,7.87
2022-08-17T13:15:08.939Z,13.57
2022-08-17T13:17:38.979Z,7.93
2022-08-17T13:20:17.457Z,10.30
2022-08-17T13:22:55.716Z,14.77
2022-08-17T13:25:25.390Z,8.10
2022-08-17T13:27:58.431Z,8.60
2022-08-17T13:30:32.653Z,10.33
2022-08-17T13:33:04.846Z,11.20
2022-08-17T13:35:50.214Z,10.77
2022-08-17T13:38:39.439Z,13.00
2022-08-17T13:41:09.109Z,11.33
2022-08-17T13:43:49.713Z,30.10
2022-08-17T13:46:24.371Z,11.07
2022-08-17T13:49:02.632Z,13.97
2022-08-17T13:51:35.926Z,9.50
2022-08-17T13:54:30.114Z,12.07
2022-08-17T13:57:04.656Z,12.23
2022-08-17T13:59:55.125Z,27.17
2022-08-17T14:02:28.371Z,18.67
2022-08-17T14:05:00.871Z,11.93
2022-08-17T14:07:33.829Z,8.60
2022-08-17T14:10:07.055Z,35.50
2022-08-17T14:12:37.849Z,11.50
2022-08-17T14:15:11.898Z,12.60
2022-08-17T14:17:41.540Z,19.30
2022-08-17T14:20:14.150Z,10.40
2022-08-17T14:22:48.325Z,20.17
2022-08-17T14:25:19.762Z,14.00
2022-08-17T14:27:52.623Z,35.37
2022-08-17T14:30:29.837Z,12.30
2022-08-17T14:33:02.139Z,17.60
2022-08-17T14:35:31.931Z,19.67
2022-08-17T14:38:02.155Z,15.97
2022-08-17T14:40:31.692Z,10.87
2022-08-17T14:43:01.362Z,11.30
2022-08-17T14:45:33.889Z,16.60
2022-08-17T14:48:07.644Z,25.97
2022-08-17T14:50:38.444Z,11.87
2022-08-17T14:53:08.982Z,15.10
2022-08-17T14:55:40.467Z,45.60
2022-08-17T14:58:10.451Z,32.47
2022-08-17T15:00:43.691Z,78.47
2022-08-17T15:03:15.492Z,129.17
2022-08-17T15:05:46.407Z,56.13
2022-08-17T15:08:16.659Z,57.20
2022-08-17T15:10:49.251Z,153.23
2022-08-17T15:13:21.822Z,229.27
2022-08-17T15:15:54.522Z,157.03
2022-08-17T15:18:25.026Z,214.93
2022-08-17T15:20:54.766Z,17.47
2022-08-17T15:23:27.086Z,37.73
2022-08-17T15:25:57.628Z,82.20
2022-08-17T15:28:27.300Z,25.60
2022-08-17T15:30:59.417Z,20.97
2022-08-17T15:33:31.879Z,13.50
2022-08-17T15:36:03.861Z,47.33
2022-08-17T15:38:39.197Z,13.70
2022-08-17T15:41:10.174Z,24.73
2022-08-17T15:43:40.174Z,34.97
2022-08-17T15:46:15.455Z,24.30
2022-08-17T15:48:46.306Z,17.73
2022-08-17T15:51:17.507Z,21.30
2022-08-17T15:53:50.782Z,23.47
2022-08-17T15:56:20.570Z,21.83
2022-08-17T15:58:50.870Z,16.00
2022-08-17T16:01:57.378Z,14.17
2022-08-17T16:04:29.711Z,28.73
2022-08-17T16:07:00.454Z,47.27
2022-08-17T16:09:30.197Z,22.23
2022-08-17T16:11:59.759Z,59.33
2022-08-17T16:14:33.587Z,14.00
2022-08-17T16:17:39.098Z,25.53
2022-08-17T16:19:59.599Z,36.67
2022-08-17T16:22:35.011Z,23.73
2022-08-17T16:25:06.402Z,24.93
2022-08-17T16:27:35.927Z,38.20
2022-08-17T16:30:06.046Z,19.97
2022-08-17T16:32:38.280Z,24.03
2022-08-17T16:35:10.690Z,38.67
2022-08-17T16:37:40.305Z,71.20
2022-08-17T16:40:15.463Z,60.33
2022-08-17T16:42:45.558Z,44.80
2022-08-17T16:45:18.413Z,33.07
2022-08-17T16:47:51.044Z,18.77
2022-08-17T16:50:22.489Z,54.47
2022-08-17T16:52:53.101Z,30.97
2022-08-17T16:55:24.337Z,21.13
2022-08-17T16:57:53.856Z,53.53
2022-08-17T17:00:23.410Z,16.93
2022-08-17T17:02:56.478Z,33.93
2022-08-17T17:05:31.274Z,15.73
2022-08-17T17:08:07.746Z,19.40
2022-08-17T17:10:41.555Z,53.50
2022-08-17T17:13:14.493Z,20.23
2022-08-17T17:15:57.346Z,17.23
2022-08-17T17:18:38.911Z,15.53
2022-08-17T17:21:09.006Z,17.50
2022-08-17T17:23:45.130Z,16.43
2022-08-17T17:26:27.362Z,17.33
2022-08-17T17:29:07.991Z,11.80
2022-08-17T17:31:42.940Z,19.77
2022-08-17T17:34:18.011Z,18.30
2022-08-17T17:36:51.882Z,18.53
2022-08-17T17:39:23.522Z,21.80
2022-08-17T17:41:56.228Z,22.07
2022-08-17T17:44:28.994Z,17.50
2022-08-17T17:47:02.838Z,15.00
2022-08-17T17:49:37.173Z,15.07
2022-08-17T17:52:14.572Z,20.97
2022-08-17T17:54:55.287Z,15.00
2022-08-17T17:57:32.330Z,14.00
2022-08-17T18:00:08.010Z,14.00
2022-08-17T18:02:51.264Z,17.70
2022-08-17T18:05:36.796Z,11.80
2022-08-17T18:08:13.406Z,13.20
2022-08-17T18:10:50.283Z,22.80
2022-08-17T18:13:27.604Z,12.67
2022-08-17T18:16:01.026Z,16.40
2022-08-17T18:18:40.381Z,15.87
2022-08-17T18:21:19.473Z,12.20
2022-08-17T18:23:50.895Z,17.13
2022-08-17T18:26:39.373Z,11.20
2022-08-17T18:29:25.443Z,17.33
2022-08-17T18:32:27.551Z,11.03
2022-08-17T18:34:59.595Z,12.83
2022-08-17T18:37:44.919Z,16.73
2022-08-17T18:40:31.963Z,14.67
2022-08-17T18:43:06.924Z,14.17
2022-08-17T18:45:41.301Z,16.13
2022-08-17T18:48:33.040Z,12.13
2022-08-17T18:51:04.494Z,14.03
2022-08-17T18:53:40.903Z,14.70
2022-08-17T18:56:27.899Z,14.60
2022-08-17T18:59:14.697Z,14.40
2022-08-17T19:01:52.770Z,17.73
2022-08-17T19:04:36.572Z,19.20
2022-08-17T19:07:28.235Z,15.20
2022-08-17T19:10:08.564Z,14.63
2022-08-17T19:12:42.738Z,23.93
2022-08-17T19:15:14.858Z,16.30
2022-08-17T19:17:48.606Z,25.00
2022-08-17T19:20:21.357Z,18.10
2022-08-17T19:23:08.483Z,17.50
2022-08-17T19:25:45.433Z,18.30
2022-08-17T19:28:22.618Z,21.77
2022-08-17T19:30:53.767Z,32.43
2022-08-17T19:33:23.263Z,21.83
2022-08-17T19:36:00.748Z,24.87
2022-08-17T19:38:39.574Z,20.77
2022-08-17T19:41:17.176Z,21.47
2022-08-17T19:44:12.263Z,20.27
2022-08-17T19:46:49.977Z,24.27
2022-08-17T19:49:34.476Z,23.27
2022-08-17T19:52:24.142Z,29.10
2022-08-17T19:54:59.156Z,18.80
2022-08-17T19:57:40.087Z,19.53
2022-08-17T20:00:13.026Z,20.90
2022-08-17T20:02:50.683Z,18.40
2022-08-17T20:05:23.439Z,20.43
2022-08-17T20:07:57.019Z,26.40
2022-08-17T20:10:45.219Z,21.10
2022-08-17T20:13:33.028Z,20.10
2022-08-17T20:16:03.851Z,20.40
2022-08-17T20:18:38.230Z,36.17
2022-08-17T20:21:20.348Z,20.97
2022-08-17T20:23:55.785Z,25.03
2022-08-17T20:26:28.930Z,24.07
2022-08-17T20:29:37.623Z,27.27
2022-08-17T20:32:32.378Z,25.53
2022-08-17T20:35:08.635Z,24.83
2022-08-17T20:37:43.141Z,65.23
2022-08-17T20:40:25.967Z,49.37
2022-08-17T20:42:55.650Z,21.70
2022-08-17T20:45:55.336Z,32.87
2022-08-17T20:48:38.375Z,30.20
2022-08-17T20:51:22.348Z,36.47
2022-08-17T20:54:09.857Z,24.57
2022-08-17T20:56:57.829Z,23.73
2022-08-17T21:00:03.696Z,24.37
2022-08-17T21:02:33.236Z,31.33
2022-08-17T21:05:41.422Z,49.00
2022-08-17T21:08:19.366Z,16.67
2022-08-17T21:10:49.422Z,18.03
2022-08-17T21:13:53.195Z,17.23
2022-08-17T21:16:47.395Z,17.57
2022-08-17T21:19:48.982Z,29.73
2022-08-17T21:22:34.563Z,22.57
2022-08-17T21:25:17.311Z,23.50
2022-08-17T21:27:52.425Z,18.80
2022-08-17T21:30:47.653Z,22.03
2022-08-17T21:33:27.121Z,24.97
2022-08-17T21:36:18.220Z,22.40
2022-08-17T21:39:06.449Z,17.37
2022-08-17T21:41:52.792Z,18.00
2022-08-17T21:44:30.924Z,20.80
2022-08-17T21:47:16.755Z,17.77
2022-08-17T21:49:46.386Z,16.67
2022-08-17T21:52:17.682Z,17.53
2022-08-17T21:54:52.216Z,16.50
2022-08-17T21:57:27.592Z,17.23
2022-08-17T22:00:00.518Z,21.47
2022-08-17T22:02:32.153Z,14.50
2022-08-17T22:05:03.550Z,16.90
2022-08-17T22:07:38.430Z,12.70
2022-08-17T22:10:10.071Z,14.03
2022-08-17T22:12:43.190Z,13.23
2022-08-17T22:15:20.557Z,15.90
2022-08-17T22:17:50.933Z,13.37
2022-08-17T22:20:22.938Z,12.07
2022-08-17T22:23:22.111Z,14.37
2022-08-17T22:26:02.547Z,13.53
2022-08-17T22:28:44.331Z,13.93
2022-08-17T22:31:15.427Z,13.83
2022-08-17T22:33:48.999Z,14.10
2022-08-17T22:36:29.096Z,12.07
2022-08-17T22:39:00.260Z,12.00
2022-08-17T22:41:40.727Z,12.47
2022-08-17T22:44:19.366Z,15.10
2022-08-17T22:47:06.723Z,10.77
2022-08-17T22:49:53.248Z,12.83
2022-08-17T22:52:33.650Z,14.00
2022-08-17T22:55:33.835Z,16.40
2022-08-17T22:58:16.486Z,18.27
2022-08-17T23:00:49.932Z,15.17
2022-08-17T23:03:21.338Z,12.80
2022-08-17T23:06:04.922Z,11.97
2022-08-17T23:08:36.934Z,11.23
2022-08-17T23:11:09.283Z,12.90
2022-08-17T23:13:40.383Z,15.73
2022-08-17T23:16:14.906Z,12.93
2022-08-17T23:18:46.106Z,11.60
2022-08-17T23:21:16.033Z,12.60
2022-08-17T23:23:56.200Z,11.10
2022-08-17T23:26:27.767Z,10.03
2022-08-17T23:28:57.269Z,10.20
2022-08-17T23:31:32.995Z,13.90
2022-08-17T23:34:02.676Z,9.80
2022-08-17T23:36:32.523Z,9.60
2022-08-17T23:39:02.059Z,7.20
2022-08-17T23:41:33.666Z,7.33
2022-08-17T23:44:03.673Z,7.80
2022-08-17T23:46:35.938Z,8.17
2022-08-17T23:49:06.715Z,8.73
2022-08-17T23:51:39.750Z,7.60
2022-08-17T23:54:13.603Z,11.97
2022-08-17T23:56:45.606Z,9.77
2022-08-17T23:59:15.605Z,10.90
